createdAt,value
2023-01-31T00:01:44.163Z,59.00
2023-01-31T00:04:12.443Z,58.80
2023-01-31T00:06:41.276Z,58.60
2023-01-31T00:09:09.652Z,58.30
2023-01-31T00:11:37.567Z,58.30
2023-01-31T00:14:07.144Z,58.50
2023-01-31T00:16:34.796Z,58.40
2023-01-31T00:19:01.717Z,58.30
2023-01-31T00:21:30.047Z,58.20
2023-01-31T00:23:58.182Z,58.30
2023-01-31T00:26:26.893Z,58.30
2023-01-31T00:28:56.167Z,58.00
2023-01-31T00:31:26.546Z,58.10
2023-01-31T00:33:54.641Z,58.20
2023-01-31T00:36:24.321Z,57.80
2023-01-31T00:38:52.196Z,58.00
2023-01-31T00:41:19.528Z,58.20
2023-01-31T00:43:46.247Z,58.20
2023-01-31T00:46:13.163Z,58.00
2023-01-31T00:48:41.432Z,58.00
2023-01-31T00:51:08.182Z,58.20
2023-01-31T00:53:35.488Z,58.10
2023-01-31T00:56:05.421Z,57.90
2023-01-31T00:58:32.295Z,58.30
2023-01-31T01:01:07.081Z,59.00
2023-01-31T01:03:34.680Z,58.00
2023-01-31T01:06:03.799Z,58.10
2023-01-31T01:08:30.673Z,58.50
2023-01-31T01:10:57.650Z,58.50
2023-01-31T01:13:24.325Z,58.40
2023-01-31T01:15:51.172Z,58.40
2023-01-31T01:18:17.930Z,58.60
2023-01-31T01:20:44.665Z,58.40
2023-01-31T01:23:12.814Z,58.50
2023-01-31T01:25:43.405Z,58.60
2023-01-31T01:28:10.356Z,58.40
2023-01-31T01:30:38.205Z,58.40
2023-01-31T01:33:04.955Z,58.50
2023-01-31T01:35:31.836Z,59.30
2023-01-31T01:37:58.556Z,58.50
2023-01-31T01:40:35.374Z,58.40
2023-01-31T01:43:02.121Z,58.10
2023-01-31T01:45:29.495Z,58.10
2023-01-31T01:47:59.260Z,58.10
2023-01-31T01:50:30.198Z,57.90
2023-01-31T01:53:01.860Z,58.00
2023-01-31T01:55:34.243Z,57.70
2023-01-31T01:58:04.533Z,57.30
2023-01-31T02:00:33.159Z,57.40
2023-01-31T02:03:01.672Z,58.30
2023-01-31T02:05:32.221Z,57.60
2023-01-31T02:07:59.975Z,57.50
2023-01-31T02:10:31.405Z,57.60
2023-01-31T02:12:58.857Z,57.60
2023-01-31T02:15:25.928Z,57.70
2023-01-31T02:17:53.948Z,58.00
2023-01-31T02:20:35.336Z,57.90
2023-01-31T02:23:24.163Z,57.90
2023-01-31T02:26:37.156Z,57.70
2023-01-31T02:29:27.879Z,57.70
2023-01-31T02:32:33.618Z,58.10
2023-01-31T02:35:10.382Z,58.00
2023-01-31T02:37:48.028Z,57.90
2023-01-31T02:40:19.910Z,58.00
2023-01-31T02:42:53.319Z,58.10
2023-01-31T02:45:29.366Z,58.00
2023-01-31T02:48:11.636Z,58.00
2023-01-31T02:50:44.532Z,57.80
2023-01-31T02:53:15.461Z,58.60
2023-01-31T02:55:49.819Z,57.90
2023-01-31T02:58:18.887Z,57.90
2023-01-31T03:00:47.442Z,58.00
2023-01-31T03:03:20.381Z,58.10
2023-01-31T03:06:10.656Z,58.20
2023-01-31T03:08:39.412Z,58.20
2023-01-31T03:11:08.402Z,58.30
2023-01-31T03:13:46.361Z,58.30
2023-01-31T03:16:21.988Z,58.30
2023-01-31T03:19:01.601Z,58.20
2023-01-31T03:21:33.816Z,58.50
2023-01-31T03:24:01.009Z,58.60
2023-01-31T03:26:28.537Z,58.70
2023-01-31T03:28:57.318Z,58.70
2023-01-31T03:31:29.332Z,58.70
2023-01-31T03:34:00.861Z,58.70
2023-01-31T03:36:33.312Z,58.90
2023-01-31T03:39:11.990Z,58.90
2023-01-31T03:41:48.089Z,59.10
2023-01-31T03:44:18.980Z,59.20
2023-01-31T03:46:51.343Z,59.40
2023-01-31T03:49:24.217Z,59.30
2023-01-31T03:51:57.481Z,59.30
2023-01-31T03:54:28.734Z,59.30
2023-01-31T03:56:59.495Z,59.40
2023-01-31T03:59:29.498Z,59.50
2023-01-31T04:01:59.197Z,59.70
2023-01-31T04:04:32.192Z,59.90
2023-01-31T04:07:00.030Z,60.30
2023-01-31T04:09:26.988Z,60.40
2023-01-31T04:11:53.664Z,60.50
2023-01-31T04:14:20.565Z,60.60
2023-01-31T04:16:47.329Z,60.50
2023-01-31T04:19:14.105Z,60.30
2023-01-31T04:21:42.211Z,60.30
2023-01-31T04:24:09.359Z,60.30
2023-01-31T04:26:36.858Z,60.10
2023-01-31T04:29:04.486Z,60.10
2023-01-31T04:31:31.302Z,59.90
2023-01-31T04:33:58.247Z,60.00
2023-01-31T04:36:25.243Z,59.90
2023-01-31T04:38:53.417Z,60.00
2023-01-31T04:41:20.124Z,60.10
2023-01-31T04:43:46.877Z,60.10
2023-01-31T04:46:13.843Z,60.10
2023-01-31T04:48:40.607Z,59.90
2023-01-31T04:51:08.508Z,60.10
2023-01-31T04:53:35.383Z,60.20
2023-01-31T04:56:03.949Z,60.10
2023-01-31T04:58:31.712Z,60.30
2023-01-31T05:00:58.412Z,60.10
2023-01-31T05:03:25.141Z,60.10
2023-01-31T05:05:52.020Z,60.20
2023-01-31T05:08:18.924Z,60.20
2023-01-31T05:10:45.647Z,60.10
2023-01-31T05:13:13.785Z,60.20
2023-01-31T05:15:40.854Z,60.10
2023-01-31T05:18:07.630Z,60.20
2023-01-31T05:20:37.258Z,60.10
2023-01-31T05:23:04.039Z,59.90
2023-01-31T05:25:31.529Z,60.00
2023-01-31T05:27:58.424Z,60.00
2023-01-31T05:30:26.818Z,59.80
2023-01-31T05:32:53.839Z,59.80
2023-01-31T05:35:20.807Z,59.90
2023-01-31T05:37:47.684Z,60.70
2023-01-31T05:40:16.865Z,59.80
2023-01-31T05:42:43.916Z,59.70
2023-01-31T05:45:12.354Z,59.70
2023-01-31T05:47:40.435Z,59.80
2023-01-31T05:50:08.296Z,59.70
2023-01-31T05:52:34.981Z,59.70
2023-01-31T05:55:01.742Z,59.50
2023-01-31T05:57:28.517Z,59.60
2023-01-31T05:59:55.213Z,59.50
2023-01-31T06:02:22.002Z,59.50
2023-01-31T06:04:50.131Z,59.50
2023-01-31T06:07:16.940Z,59.50
2023-01-31T06:09:43.656Z,59.60
2023-01-31T06:12:13.119Z,59.50
2023-01-31T06:14:39.840Z,60.30
2023-01-31T06:17:06.706Z,59.60
2023-01-31T06:19:33.462Z,59.70
2023-01-31T06:22:01.613Z,59.70
2023-01-31T06:24:28.387Z,59.80
2023-01-31T06:26:55.087Z,59.80
2023-01-31T06:29:21.877Z,59.90
2023-01-31T06:31:48.737Z,59.60
2023-01-31T06:34:15.569Z,59.70
2023-01-31T06:36:42.410Z,59.50
2023-01-31T06:39:12.429Z,59.60
2023-01-31T06:41:39.644Z,59.50
2023-01-31T06:44:06.415Z,59.50
2023-01-31T06:46:33.631Z,59.50
2023-01-31T06:49:00.472Z,59.40
2023-01-31T06:51:27.180Z,59.40
2023-01-31T06:53:54.097Z,59.30
2023-01-31T06:56:22.881Z,59.40
2023-01-31T06:58:49.616Z,59.30
2023-01-31T07:01:16.537Z,59.30
2023-01-31T07:03:43.345Z,59.20
2023-01-31T07:06:10.616Z,59.20
2023-01-31T07:08:37.710Z,59.20
2023-01-31T07:11:05.144Z,59.10
2023-01-31T07:13:33.645Z,59.10
2023-01-31T07:16:00.571Z,59.00
2023-01-31T07:18:27.552Z,59.00
2023-01-31T07:20:54.372Z,59.00
2023-01-31T07:23:21.251Z,59.10
2023-01-31T07:25:48.158Z,59.00
2023-01-31T07:28:15.000Z,58.70
2023-01-31T07:30:43.250Z,58.90
2023-01-31T07:33:11.383Z,58.90
2023-01-31T07:35:38.247Z,58.80
2023-01-31T07:41:33.887Z,58.70
2023-01-31T07:44:00.736Z,58.80
2023-01-31T07:46:28.898Z,58.70
2023-01-31T07:48:55.682Z,58.70
2023-01-31T07:51:22.404Z,58.60
2023-01-31T07:53:49.360Z,58.60
2023-01-31T07:56:17.878Z,58.60
2023-01-31T07:58:45.900Z,58.50
2023-01-31T08:01:15.710Z,58.40
2023-01-31T08:03:44.073Z,58.40
2023-01-31T08:06:12.716Z,58.30
2023-01-31T08:08:41.057Z,58.30
2023-01-31T08:11:08.299Z,58.20
2023-01-31T08:13:36.047Z,58.20
2023-01-31T08:16:03.665Z,58.20
2023-01-31T08:18:30.557Z,58.30
2023-01-31T08:20:59.920Z,58.20
2023-01-31T08:23:28.256Z,58.20
2023-01-31T08:26:00.509Z,58.20
2023-01-31T08:28:27.453Z,58.20
2023-01-31T08:31:07.693Z,58.30
2023-01-31T08:33:37.033Z,58.40
2023-01-31T08:36:17.239Z,58.30
2023-01-31T08:38:44.728Z,58.20
2023-01-31T08:41:11.956Z,58.20
2023-01-31T08:43:54.269Z,58.20
2023-01-31T08:46:23.964Z,58.10
2023-01-31T08:48:51.162Z,58.20
2023-01-31T08:51:19.602Z,58.20
2023-01-31T08:53:46.467Z,58.30
2023-01-31T08:56:15.133Z,58.30
2023-01-31T08:58:45.220Z,58.30
2023-01-31T09:01:14.385Z,58.30
2023-01-31T09:03:43.759Z,58.30
2023-01-31T09:06:15.099Z,58.30
2023-01-31T09:08:44.201Z,58.30
2023-01-31T09:11:11.532Z,58.30
2023-01-31T09:13:38.239Z,58.40
2023-01-31T09:16:08.993Z,58.50
2023-01-31T09:18:37.064Z,58.50
2023-01-31T09:21:05.145Z,58.70
2023-01-31T09:23:32.204Z,58.60
2023-01-31T09:26:00.367Z,58.70
2023-01-31T09:28:27.489Z,58.70
2023-01-31T09:30:54.648Z,58.70
2023-01-31T09:33:22.046Z,58.70
2023-01-31T09:35:56.796Z,58.60
2023-01-31T09:38:26.017Z,58.80
2023-01-31T09:40:56.079Z,58.80
2023-01-31T09:43:28.794Z,58.70
2023-01-31T09:46:00.604Z,58.70
2023-01-31T09:48:33.161Z,58.50
2023-01-31T09:51:01.515Z,58.50
2023-01-31T09:53:32.021Z,58.80
2023-01-31T09:56:12.384Z,58.60
2023-01-31T09:58:49.794Z,58.40
2023-01-31T10:01:24.223Z,58.40
2023-01-31T10:04:20.762Z,58.40
2023-01-31T10:06:53.502Z,58.30
2023-01-31T10:09:28.485Z,58.30
2023-01-31T10:11:59.745Z,58.10
2023-01-31T10:14:33.439Z,58.10
2023-01-31T10:17:09.124Z,57.90
2023-01-31T10:19:43.412Z,58.10
2023-01-31T10:22:15.485Z,58.10
2023-01-31T10:24:49.373Z,58.20
2023-01-31T10:27:21.597Z,57.90
2023-01-31T10:29:55.674Z,57.90
2023-01-31T10:32:30.708Z,57.90
2023-01-31T10:35:02.260Z,58.20
2023-01-31T10:37:38.720Z,58.20
2023-01-31T10:40:13.967Z,58.10
2023-01-31T10:42:49.707Z,57.80
2023-01-31T10:45:25.482Z,57.10
2023-01-31T10:47:54.259Z,57.30
2023-01-31T10:50:29.208Z,57.70
2023-01-31T10:53:20.125Z,57.90
2023-01-31T10:56:03.906Z,57.90
2023-01-31T10:58:35.535Z,57.40
2023-01-31T11:01:04.302Z,57.50
2023-01-31T11:03:31.085Z,57.70
2023-01-31T11:05:58.945Z,57.50
2023-01-31T11:08:32.672Z,56.30
2023-01-31T11:11:07.087Z,56.90
2023-01-31T11:13:37.892Z,57.20
2023-01-31T11:16:09.764Z,56.10
2023-01-31T11:18:43.506Z,57.00
2023-01-31T11:21:18.802Z,56.40
2023-01-31T11:23:46.064Z,56.30
2023-01-31T11:26:13.589Z,57.10
2023-01-31T11:28:41.586Z,56.90
2023-01-31T11:31:20.526Z,56.00
2023-01-31T11:33:57.125Z,56.50
2023-01-31T11:36:24.152Z,57.50
2023-01-31T11:38:51.523Z,57.80
2023-01-31T11:41:31.216Z,58.70
2023-01-31T11:44:15.968Z,59.00
2023-01-31T11:46:49.636Z,59.10
2023-01-31T11:49:23.693Z,59.30
2023-01-31T11:51:51.245Z,59.50
2023-01-31T11:54:24.064Z,59.50
2023-01-31T11:56:51.536Z,59.80
2023-01-31T11:59:23.107Z,59.80
2023-01-31T12:01:56.074Z,59.90
2023-01-31T12:04:26.148Z,59.90
2023-01-31T12:07:01.995Z,59.80
2023-01-31T12:09:35.460Z,59.60
2023-01-31T12:12:05.841Z,59.60
2023-01-31T12:14:38.713Z,59.60
2023-01-31T12:17:11.617Z,59.50
2023-01-31T12:19:48.876Z,59.40
2023-01-31T12:22:22.343Z,59.40
2023-01-31T12:25:02.405Z,59.30
2023-01-31T12:27:49.326Z,58.90
2023-01-31T12:30:33.985Z,59.00
2023-01-31T12:33:23.937Z,59.40
2023-01-31T12:36:01.707Z,59.50
2023-01-31T12:38:50.419Z,59.60
2023-01-31T12:41:34.859Z,59.50
2023-01-31T12:44:17.311Z,59.80
2023-01-31T12:47:11.023Z,60.10
2023-01-31T12:50:01.583Z,60.10
2023-01-31T12:52:43.831Z,60.30
2023-01-31T12:55:23.776Z,60.30
2023-01-31T12:58:04.791Z,60.40
2023-01-31T13:00:43.821Z,60.50
2023-01-31T13:03:31.249Z,60.30
2023-01-31T13:06:03.458Z,60.50
2023-01-31T13:08:32.701Z,60.60
2023-01-31T13:11:06.395Z,60.50
2023-01-31T13:13:38.461Z,60.50
2023-01-31T13:16:13.161Z,60.50
2023-01-31T13:18:41.872Z,60.70
2023-01-31T13:21:16.569Z,60.70
2023-01-31T13:23:47.604Z,60.80
2023-01-31T13:26:23.661Z,60.90
2023-01-31T13:29:00.750Z,60.90
2023-01-31T13:31:30.496Z,61.00
2023-01-31T13:34:04.873Z,61.10
2023-01-31T13:36:36.674Z,61.20
2023-01-31T13:39:13.671Z,61.20
2023-01-31T13:41:42.176Z,61.50
2023-01-31T13:44:16.429Z,61.50
2023-01-31T13:46:49.984Z,61.80
2023-01-31T13:49:25.636Z,61.80
2023-01-31T13:52:02.192Z,62.20
2023-01-31T13:54:35.858Z,62.40
2023-01-31T13:57:24.996Z,62.50
2023-01-31T13:59:54.301Z,62.70
2023-01-31T14:06:01.288Z,63.00
2023-01-31T14:23:25.095Z,63.40
2023-01-31T14:29:11.256Z,63.80
2023-01-31T14:31:57.869Z,63.70
2023-01-31T14:34:31.117Z,63.80
2023-01-31T14:37:08.460Z,63.80
2023-01-31T14:40:11.291Z,63.60
2023-01-31T14:43:04.996Z,63.60
2023-01-31T14:45:47.919Z,63.40
2023-01-31T14:48:24.676Z,63.20
2023-01-31T14:51:08.850Z,63.40
2023-01-31T14:54:10.887Z,63.60
2023-01-31T14:56:57.675Z,63.20
2023-01-31T14:59:31.653Z,63.30
2023-01-31T15:01:59.767Z,63.20
2023-01-31T15:04:32.537Z,63.50
2023-01-31T15:07:02.379Z,63.10
2023-01-31T15:09:53.675Z,63.20
2023-01-31T15:12:56.558Z,63.30
2023-01-31T15:15:28.825Z,63.10
2023-01-31T15:18:02.112Z,63.40
2023-01-31T15:20:36.106Z,63.40
2023-01-31T15:23:07.736Z,63.20
2023-01-31T15:25:40.405Z,63.10
2023-01-31T15:28:14.992Z,63.10
2023-01-31T15:30:45.847Z,63.10
2023-01-31T15:33:20.887Z,63.00
2023-01-31T15:35:56.511Z,63.00
2023-01-31T15:38:33.204Z,62.70
2023-01-31T15:41:20.675Z,62.80
2023-01-31T15:43:51.771Z,62.60
2023-01-31T15:46:24.232Z,62.80
2023-01-31T15:48:52.393Z,62.80
2023-01-31T15:51:22.511Z,62.80
2023-01-31T15:53:59.941Z,62.80
2023-01-31T15:56:32.377Z,62.80
2023-01-31T15:59:07.126Z,62.90
2023-01-31T16:01:36.379Z,63.10
2023-01-31T16:04:04.121Z,63.00
2023-01-31T16:06:34.511Z,63.00
2023-01-31T16:09:03.717Z,63.10
2023-01-31T16:11:33.955Z,63.10
2023-01-31T16:14:07.492Z,63.20
2023-01-31T16:16:35.622Z,63.50
2023-01-31T16:19:03.900Z,63.50
2023-01-31T16:21:35.023Z,63.80
2023-01-31T16:24:03.725Z,63.50
2023-01-31T16:26:34.424Z,63.40
2023-01-31T16:29:14.048Z,63.40
2023-01-31T16:31:46.821Z,63.40
2023-01-31T16:34:24.776Z,63.20
2023-01-31T16:36:58.339Z,63.20
2023-01-31T16:39:33.629Z,63.30
2023-01-31T16:42:04.716Z,63.60
2023-01-31T16:44:39.972Z,63.70
2023-01-31T16:47:45.215Z,63.80
2023-01-31T16:50:42.555Z,63.70
2023-01-31T16:53:30.206Z,63.80
2023-01-31T16:56:16.791Z,63.80
2023-01-31T16:58:45.745Z,64.00
2023-01-31T17:01:16.685Z,65.00
2023-01-31T17:03:43.886Z,64.30
2023-01-31T17:06:20.472Z,64.40
2023-01-31T17:08:57.366Z,64.50
2023-01-31T17:11:41.770Z,64.90
2023-01-31T17:14:32.403Z,65.00
2023-01-31T17:17:04.713Z,65.20
2023-01-31T17:23:30.558Z,65.40
2023-01-31T17:29:14.283Z,65.50
2023-01-31T17:31:41.129Z,65.80
2023-01-31T17:34:13.472Z,65.90
2023-01-31T17:36:42.247Z,66.10
2023-01-31T17:39:09.007Z,66.50
2023-01-31T17:41:36.798Z,66.40
2023-01-31T17:44:30.387Z,66.50
2023-01-31T17:46:59.522Z,66.40
2023-01-31T17:49:27.647Z,66.70
2023-01-31T17:52:08.377Z,66.50
2023-01-31T17:54:54.896Z,66.20
2023-01-31T17:57:23.506Z,66.40
2023-01-31T17:59:50.243Z,66.20
2023-01-31T18:02:19.381Z,65.80
2023-01-31T18:04:47.624Z,65.80
2023-01-31T18:07:16.094Z,65.60
2023-01-31T18:09:43.132Z,65.40
2023-01-31T18:12:09.897Z,65.40
2023-01-31T18:14:39.689Z,65.40
2023-01-31T18:17:06.456Z,65.00
2023-01-31T18:19:33.183Z,64.80
2023-01-31T18:22:01.369Z,64.50
2023-01-31T18:24:28.104Z,64.20
2023-01-31T18:27:22.627Z,64.00
2023-01-31T18:29:49.451Z,64.00
2023-01-31T18:32:17.972Z,64.00
2023-01-31T18:34:46.089Z,63.80
2023-01-31T18:37:14.127Z,63.60
2023-01-31T18:39:40.972Z,63.60
2023-01-31T18:42:16.716Z,63.50
2023-01-31T18:44:43.755Z,63.50
2023-01-31T18:47:10.465Z,63.60
2023-01-31T18:49:37.187Z,63.50
2023-01-31T18:52:04.396Z,64.30
2023-01-31T18:54:32.606Z,63.40
2023-01-31T18:56:59.330Z,63.30
2023-01-31T18:59:26.066Z,63.30
2023-01-31T19:01:52.976Z,63.20
2023-01-31T19:04:19.714Z,63.10
2023-01-31T19:06:46.572Z,63.10
2023-01-31T19:09:13.735Z,63.10
2023-01-31T19:11:41.750Z,62.90
2023-01-31T19:14:12.116Z,62.90
2023-01-31T19:16:40.607Z,63.00
2023-01-31T19:19:08.155Z,62.90
2023-01-31T19:21:36.119Z,62.70
2023-01-31T19:24:05.121Z,62.70
2023-01-31T19:26:34.049Z,62.80
2023-01-31T19:29:03.676Z,62.60
2023-01-31T19:31:32.601Z,62.50
2023-01-31T19:34:01.250Z,62.50
2023-01-31T19:36:30.015Z,62.80
2023-01-31T19:38:58.111Z,62.60
2023-01-31T19:41:26.489Z,62.60
2023-01-31T19:43:55.911Z,62.70
2023-01-31T19:46:26.897Z,62.50
2023-01-31T19:48:54.808Z,62.10
2023-01-31T19:51:22.186Z,62.20
2023-01-31T19:53:49.675Z,62.50
2023-01-31T19:56:17.043Z,62.70
2023-01-31T19:58:43.811Z,62.80
2023-01-31T20:01:13.290Z,62.90
2023-01-31T20:03:41.578Z,62.90
2023-01-31T20:06:09.735Z,62.80
2023-01-31T20:08:37.267Z,62.70
2023-01-31T20:11:05.068Z,62.50
2023-01-31T20:13:31.821Z,62.30
2023-01-31T20:15:59.185Z,61.90
2023-01-31T20:18:26.578Z,61.60
2023-01-31T20:20:54.937Z,61.60
2023-01-31T20:23:21.706Z,61.50
2023-01-31T20:25:49.127Z,61.70
2023-01-31T20:28:16.520Z,62.00
2023-01-31T20:30:43.494Z,62.20
2023-01-31T20:33:10.272Z,62.20
2023-01-31T20:35:37.876Z,61.70
2023-01-31T20:38:06.112Z,61.10
2023-01-31T20:40:33.083Z,61.00
2023-01-31T20:42:59.799Z,60.60
2023-01-31T20:45:26.652Z,60.60
2023-01-31T20:47:53.375Z,60.30
2023-01-31T20:50:20.429Z,60.20
2023-01-31T20:52:47.398Z,60.20
2023-01-31T20:55:16.494Z,59.20
2023-01-31T20:57:43.335Z,59.00
2023-01-31T21:00:11.351Z,58.90
2023-01-31T21:02:38.881Z,58.10
2023-01-31T21:05:06.310Z,58.30
2023-01-31T21:07:32.959Z,58.00
2023-01-31T21:09:59.667Z,57.30
2023-01-31T21:12:27.751Z,57.40
2023-01-31T21:14:54.428Z,56.70
2023-01-31T21:17:27.563Z,56.40
2023-01-31T21:20:01.030Z,57.40
2023-01-31T21:22:30.926Z,56.60
2023-01-31T21:24:57.620Z,57.20
2023-01-31T21:27:24.443Z,56.60
2023-01-31T21:29:52.453Z,56.40
2023-01-31T21:32:19.189Z,56.50
2023-01-31T21:34:45.931Z,56.40
2023-01-31T21:37:12.710Z,57.40
2023-01-31T21:39:39.506Z,56.70
2023-01-31T21:42:06.189Z,56.60
2023-01-31T21:44:32.947Z,56.80
2023-01-31T21:47:01.030Z,57.00
2023-01-31T21:49:27.702Z,56.40
2023-01-31T21:51:54.411Z,57.00
2023-01-31T21:54:21.129Z,56.40
2023-01-31T21:56:47.823Z,56.50
2023-01-31T21:59:14.630Z,56.60
2023-01-31T22:01:41.403Z,56.10
2023-01-31T22:04:09.483Z,56.70
2023-01-31T22:06:38.122Z,56.40
2023-01-31T22:09:06.536Z,56.20
2023-01-31T22:11:33.415Z,56.10
2023-01-31T22:14:01.621Z,56.60
2023-01-31T22:16:28.574Z,56.40
2023-01-31T22:18:55.697Z,56.60
2023-01-31T22:21:33.580Z,56.60
2023-01-31T22:24:12.886Z,56.70
2023-01-31T22:26:41.827Z,56.70
2023-01-31T22:29:10.707Z,56.30
2023-01-31T22:31:39.838Z,56.60
2023-01-31T22:34:07.353Z,56.60
2023-01-31T22:36:35.920Z,56.60
2023-01-31T22:39:02.681Z,56.40
2023-01-31T22:41:29.531Z,56.50
2023-01-31T22:43:56.259Z,56.10
2023-01-31T22:46:24.693Z,56.40
2023-01-31T22:48:52.054Z,56.10
2023-01-31T22:51:20.469Z,56.20
2023-01-31T22:53:49.260Z,56.30
2023-01-31T22:56:18.192Z,56.40
2023-01-31T22:58:45.359Z,56.40
2023-01-31T23:01:17.646Z,56.40
2023-01-31T23:03:45.303Z,55.80
2023-01-31T23:06:13.080Z,56.20
2023-01-31T23:08:40.268Z,56.30
2023-01-31T23:11:11.865Z,55.90
2023-01-31T23:13:39.568Z,56.10
2023-01-31T23:16:08.022Z,55.80
2023-01-31T23:18:35.278Z,55.90
2023-01-31T23:21:06.751Z,56.30
2023-01-31T23:23:33.893Z,56.30
2023-01-31T23:26:00.914Z,56.40
2023-01-31T23:28:29.125Z,56.40
2023-01-31T23:30:56.446Z,56.40
2023-01-31T23:33:23.527Z,56.30
2023-01-31T23:35:50.514Z,55.90
2023-01-31T23:38:17.432Z,55.90
2023-01-31T23:40:44.260Z,55.90
2023-01-31T23:43:10.989Z,56.00
2023-01-31T23:45:39.189Z,56.10
2023-01-31T23:48:06.483Z,56.00
2023-01-31T23:50:33.197Z,55.70
2023-01-31T23:52:59.904Z,55.90
2023-01-31T23:55:26.665Z,56.30
2023-01-31T23:57:53.389Z,56.40
